Time;durP1;ratioP1;P1;durP2;ratioP2;P2;SDS_P1;SDS_P2;PMS_P1;PMS_P2;Temp;Humidity;BMP_temperature;BMP_pressure;BME280_temperature;BME280_humidity;BME280_pressure;Samples;Min_cycle;Max_cycle;Signal;HPM_P1;HPM_P2
2024/04/05 00:01:03;;;;;;;;;;;;;;;14.59;70.15;99771.28;4147586;28;19940;-67
2024/04/05 00:03:04;;;;;;;;;;;;;;;14.52;70.43;99776.50;4147655;28;19914;-67
2024/04/05 00:05:04;;;;;;;;;;;;;;;14.60;70.03;99768.38;4147645;28;19929;-67
2024/04/05 00:07:04;;;;;;;;;;;;;;;14.55;70.61;99769.97;4146970;28;20369;-67
2024/04/05 00:09:06;;;;;;;;;;;;;;;14.59;70.27;99771.28;4146682;28;19906;-67
2024/04/05 00:11:07;;;;;;;;;;;;;;;14.58;70.23;99764.22;4146122;28;19909;-67
2024/04/05 00:13:07;;;;;;;;;;;;;;;14.69;69.97;99757.63;4146972;28;19913;-67
2024/04/05 00:15:07;;;;;;;;;;;;;;;14.66;70.05;99761.47;4147222;28;19921;-67
2024/04/05 00:17:08;;;;;;;;;;;;;;;14.71;70.05;99759.13;4147088;28;19909;-67
2024/04/05 00:19:08;;;;;;;;;;;;;;;14.70;70.05;99764.66;4146869;28;20370;-67
2024/04/05 00:21:09;;;;;;;;;;;;;;;14.65;70.25;99760.63;4147407;28;19916;-67
2024/04/05 00:23:09;;;;;;;;;;;;;;;14.72;70.13;99749.19;4147049;28;19910;-67
2024/04/05 00:25:09;;;;;;;;;;;;;;;14.73;70.49;99757.09;4146549;28;20362;-67
2024/04/05 00:27:09;;;;;;;;;;;;;;;14.65;70.31;99760.63;4147002;28;19913;-67
2024/04/05 00:29:10;;;;;;;;;;;;;;;14.59;70.60;99765.88;4146482;28;20377;-67
2024/04/05 00:31:10;;;;;;;;;;;;;;;14.54;70.93;99752.16;4146917;28;20518;-67
2024/04/05 00:33:11;;;;;;;;;;;;;;;14.65;70.54;99743.66;4146011;28;19919;-67
2024/04/05 00:35:11;;;;;;;;;;;;;;;14.73;70.33;99757.09;4147211;28;20362;-67
2024/04/05 00:37:12;;;;;;;;;;;;;;;14.71;70.57;99755.56;4147241;28;19909;-67
2024/04/05 00:39:12;;;;;;;;;;;;;;;14.82;70.27;99750.63;4146242;28;20602;-67
2024/04/05 00:41:12;;;;;;;;;;;;;;;14.94;69.77;99747.50;4147034;28;19996;-67
2024/04/05 00:43:13;;;;;;;;;;;;;;;15.00;69.61;99745.94;4146845;28;19909;-67
2024/04/05 00:45:13;;;;;;;;;;;;;;;15.02;69.50;99747.44;4146814;28;20385;-67
2024/04/05 00:47:14;;;;;;;;;;;;;;;15.07;69.11;99746.88;4147450;28;19917;-67
2024/04/05 00:49:14;;;;;;;;;;;;;;;15.14;69.21;99745.16;4146348;28;19913;-67
2024/04/05 00:51:14;;;;;;;;;;;;;;;15.16;69.01;99739.59;4146763;28;19909;-67
2024/04/05 00:53:31;;;;;;;;;;;;;;;15.07;69.28;99742.34;4146505;28;19956;-67
2024/04/05 00:55:33;;;;;;;;;;;;;;;15.08;69.00;99753.94;4146560;28;19996;-66
2024/04/05 00:57:33;;;;;;;;;;;;;;;15.03;69.19;99746.41;4147423;28;19909;-67
2024/04/05 00:59:34;;;;;;;;;;;;;;;15.11;69.34;99746.34;4149022;28;20011;-69
2024/04/05 01:01:34;;;;;;;;;;;;;;;15.16;69.03;99744.97;4150115;28;20283;-67
2024/04/05 01:03:34;;;;;;;;;;;;;;;15.10;69.24;99747.38;4146592;28;19915;-67
2024/04/05 01:05:38;;;;;;;;;;;;;;;15.13;69.17;99749.69;4146477;28;20423;-67
2024/04/05 01:07:39;;;;;;;;;;;;;;;15.04;69.42;99750.78;4146808;28;19928;-67
2024/04/05 01:09:39;;;;;;;;;;;;;;;15.11;69.48;99754.41;4145981;28;20008;-67
2024/04/05 01:11:39;;;;;;;;;;;;;;;15.15;69.06;99754.06;4145114;28;19917;-67
2024/04/05 01:13:40;;;;;;;;;;;;;;;14.95;69.55;99757.25;4146455;28;19956;-67
2024/04/05 01:15:40;;;;;;;;;;;;;;;14.95;70.11;99762.63;4146854;28;19913;-67
2024/04/05 01:17:41;;;;;;;;;;;;;;;15.12;69.57;99750.72;4146807;28;20382;-67
2024/04/05 01:19:42;;;;;;;;;;;;;;;15.18;69.66;99737.56;4146273;28;19909;-67
2024/04/05 01:21:47;;;;;;;;;;;;;;;15.14;69.72;99747.84;4146526;28;19909;-67
2024/04/05 01:23:48;;;;;;;;;;;;;;;15.20;69.76;99739.03;4146538;28;20371;-67
2024/04/05 01:25:50;;;;;;;;;;;;;;;15.19;69.57;99740.06;4146289;28;19910;-67
2024/04/05 01:27:51;;;;;;;;;;;;;;;15.30;69.50;99730.72;4146432;28;20443;-67
2024/04/05 01:29:51;;;;;;;;;;;;;;;15.35;69.38;99732.84;4145784;28;20007;-67
2024/04/05 01:31:51;;;;;;;;;;;;;;;15.42;68.94;99729.22;4147657;28;20558;-68
2024/04/05 01:33:53;;;;;;;;;;;;;;;15.41;68.92;99726.72;4146975;28;20290;-67
2024/04/05 01:35:53;;;;;;;;;;;;;;;15.26;69.24;99734.78;4146020;28;19921;-67
2024/04/05 01:37:54;;;;;;;;;;;;;;;15.15;70.31;99736.06;4149515;28;19917;-67
2024/04/05 01:39:54;;;;;;;;;;;;;;;15.11;70.86;99732.06;4158675;28;19915;-67
2024/04/05 01:41:55;;;;;;;;;;;;;;;15.17;70.92;99733.19;4155822;28;20356;-67
2024/04/05 01:43:55;;;;;;;;;;;;;;;15.32;70.45;99725.97;4153663;28;19909;-67
2024/04/05 01:45:55;;;;;;;;;;;;;;;15.21;70.78;99718.34;4171237;28;20003;-67
2024/04/05 01:47:56;;;;;;;;;;;;;;;15.24;70.56;99720.66;4167787;28;20384;-67
2024/04/05 01:49:56;;;;;;;;;;;;;;;15.24;70.92;99712.59;4164513;28;20273;-67
2024/04/05 01:51:56;;;;;;;;;;;;;;;15.28;70.59;99712.03;4164859;28;20492;-67
2024/04/05 01:53:57;;;;;;;;;;;;;;;15.25;70.65;99712.41;4166293;28;20674;-68
2024/04/05 01:56:00;;;;;;;;;;;;;;;15.23;70.89;99718.97;4168269;28;20003;-67
2024/04/05 01:58:01;;;;;;;;;;;;;;;15.24;71.09;99715.28;4178938;28;20007;-68
2024/04/05 02:00:02;;;;;;;;;;;;;;;15.08;71.18;99722.50;4183497;28;19909;-67
2024/04/05 02:02:02;;;;;;;;;;;;;;;15.00;71.79;99722.56;4184686;28;19935;-67
2024/04/05 02:04:02;;;;;;;;;;;;;;;14.96;71.94;99716.72;4184284;28;19969;-68
2024/04/05 02:06:13;;;;;;;;;;;;;;;15.16;71.66;99705.41;4184956;28;20305;-67
2024/04/05 02:08:13;;;;;;;;;;;;;;;15.12;71.39;99707.63;4183457;28;19925;-68
2024/04/05 02:10:13;;;;;;;;;;;;;;;15.21;71.35;99716.47;4181232;28;19920;-67
2024/04/05 02:12:13;;;;;;;;;;;;;;;15.30;71.34;99711.88;4181428;28;19999;-67
2024/04/05 02:14:14;;;;;;;;;;;;;;;15.27;70.81;99710.34;4182537;28;19921;-67
2024/04/05 02:16:14;;;;;;;;;;;;;;;15.24;71.09;99721.50;4182083;28;20284;-67
2024/04/05 02:18:14;;;;;;;;;;;;;;;15.18;71.24;99710.63;4181875;28;19909;-67
2024/04/05 02:20:15;;;;;;;;;;;;;;;15.16;71.31;99718.88;4181361;28;19991;-67
2024/04/05 02:22:15;;;;;;;;;;;;;;;15.07;71.56;99720.81;4184746;28;19913;-68
2024/04/05 02:24:15;;;;;;;;;;;;;;;15.16;71.20;99726.13;4185867;28;19920;-68
2024/04/05 02:26:16;;;;;;;;;;;;;;;15.09;71.60;99726.88;4184954;28;19997;-67
2024/04/05 02:28:16;;;;;;;;;;;;;;;15.01;71.62;99732.31;4184608;28;20067;-67
2024/04/05 02:30:17;;;;;;;;;;;;;;;14.97;71.83;99737.22;4184212;28;19944;-67
2024/04/05 02:32:18;;;;;;;;;;;;;;;14.97;72.11;99737.22;4185224;28;19940;-67
2024/04/05 02:34:18;;;;;;;;;;;;;;;14.95;72.24;99733.88;4183872;28;20438;-67
2024/04/05 02:36:18;;;;;;;;;;;;;;;14.86;72.43;99740.34;4181330;28;19916;-67
2024/04/05 02:38:19;;;;;;;;;;;;;;;14.89;72.21;99742.66;4181414;28;20586;-67
2024/04/05 02:40:19;;;;;;;;;;;;;;;15.02;72.19;99747.44;4180776;28;19924;-67
2024/04/05 02:42:19;;;;;;;;;;;;;;;15.03;71.79;99748.28;4181362;28;19916;-67
2024/04/05 02:44:24;;;;;;;;;;;;;;;15.04;71.53;99758.84;4180108;28;19955;-67
2024/04/05 02:46:25;;;;;;;;;;;;;;;15.07;71.51;99747.75;4182130;28;19970;-67
2024/04/05 02:48:25;;;;;;;;;;;;;;;15.10;71.39;99744.69;4186527;28;19908;-69
2024/04/05 02:50:25;;;;;;;;;;;;;;;15.12;71.50;99744.50;4186655;28;19916;-68
2024/04/05 02:52:27;;;;;;;;;;;;;;;15.10;71.10;99747.38;4184019;28;19915;-67
2024/04/05 02:54:28;;;;;;;;;;;;;;;15.12;71.40;99744.50;4184877;28;19909;-67
2024/04/05 02:56:28;;;;;;;;;;;;;;;15.22;70.68;99750.47;4183792;28;19915;-67
2024/04/05 02:58:28;;;;;;;;;;;;;;;15.19;70.71;99747.31;4181394;28;19908;-67
2024/04/05 03:00:29;;;;;;;;;;;;;;;15.19;70.82;99748.13;4180575;28;20281;-67
2024/04/05 03:02:29;;;;;;;;;;;;;;;15.28;70.46;99743.53;4181159;28;19915;-67
2024/04/05 03:04:29;;;;;;;;;;;;;;;15.38;70.56;99749.50;4180916;28;20441;-67
2024/04/05 03:06:30;;;;;;;;;;;;;;;15.34;70.10;99748.16;4181307;28;19922;-67
2024/04/05 03:08:30;;;;;;;;;;;;;;;15.40;70.42;99746.59;4183037;28;19916;-67
2024/04/05 03:10:30;;;;;;;;;;;;;;;15.37;69.98;99747.81;4180200;28;19909;-67
2024/04/05 03:12:31;;;;;;;;;;;;;;;15.37;69.85;99755.88;4183350;28;20427;-67
2024/04/05 03:14:31;;;;;;;;;;;;;;;15.43;70.12;99747.06;4185875;28;20484;-67
2024/04/05 03:16:32;;;;;;;;;;;;;;;15.46;70.02;99739.63;4185498;28;19912;-67
2024/04/05 03:18:32;;;;;;;;;;;;;;;15.47;69.90;99741.31;4181032;28;19919;-68
2024/04/05 03:20:32;;;;;;;;;;;;;;;15.38;69.87;99749.50;4180000;28;19919;-67
2024/04/05 03:22:33;;;;;;;;;;;;;;;15.24;70.56;99753.81;4180531;28;19916;-67
2024/04/05 03:24:33;;;;;;;;;;;;;;;15.16;70.77;99764.63;4180577;28;19916;-67
2024/04/05 03:26:36;;;;;;;;;;;;;;;15.28;70.45;99756.97;4180553;28;19919;-67
2024/04/05 03:28:36;;;;;;;;;;;;;;;15.37;70.05;99744.25;4180416;28;19958;-67
2024/04/05 03:30:36;;;;;;;;;;;;;;;15.26;70.92;99743.69;4179851;28;20380;-67
2024/04/05 03:32:37;;;;;;;;;;;;;;;15.31;70.46;99737.75;4180293;28;19935;-67
2024/04/05 03:34:38;;;;;;;;;;;;;;;15.41;70.44;99750.97;4180447;28;20332;-67
2024/04/05 03:36:38;;;;;;;;;;;;;;;15.39;70.14;99739.53;4183639;28;19988;-67
2024/04/05 03:38:38;;;;;;;;;;;;;;;15.46;70.03;99735.06;4184033;28;19913;-67
2024/04/05 03:40:39;;;;;;;;;;;;;;;15.52;69.84;99738.88;4180298;28;19916;-67
2024/04/05 03:42:39;;;;;;;;;;;;;;;15.49;69.62;99737.41;4180386;28;20283;-67
2024/04/05 03:44:39;;;;;;;;;;;;;;;15.53;69.39;99727.09;4180254;28;20397;-67
2024/04/05 03:46:40;;;;;;;;;;;;;;;15.58;69.27;99732.78;4178473;28;20415;-66
2024/04/05 03:48:40;;;;;;;;;;;;;;;15.45;69.45;99733.41;4180396;28;19924;-67
2024/04/05 03:50:42;;;;;;;;;;;;;;;15.51;69.52;99729.13;4180196;28;19952;-67
2024/04/05 03:52:42;;;;;;;;;;;;;;;15.44;69.96;99737.13;4180078;28;19912;-67
2024/04/05 03:54:42;;;;;;;;;;;;;;;15.37;70.18;99731.66;4179887;28;19954;-67
2024/04/05 03:56:44;;;;;;;;;;;;;;;15.39;70.50;99721.53;4179744;28;19915;-67
2024/04/05 03:58:46;;;;;;;;;;;;;;;15.34;70.28;99731.19;4179885;28;19962;-67
2024/04/05 04:00:50;;;;;;;;;;;;;;;15.24;70.34;99724.19;4179511;28;19908;-67
2024/04/05 04:02:53;;;;;;;;;;;;;;;15.29;70.07;99731.72;4180398;28;20292;-67
2024/04/05 04:04:54;;;;;;;;;;;;;;;15.25;69.99;99733.97;4180459;28;20019;-67
2024/04/05 04:06:55;;;;;;;;;;;;;;;15.36;69.87;99729.97;4180191;28;20011;-67
2024/04/05 04:08:55;;;;;;;;;;;;;;;15.19;69.92;99741.94;4178305;28;20102;-66
2024/04/05 04:10:56;;;;;;;;;;;;;;;15.27;70.07;99734.59;4178819;28;19915;-67
2024/04/05 04:12:56;;;;;;;;;;;;;;;15.34;69.65;99739.25;4179239;28;20018;-67
2024/04/05 04:14:56;;;;;;;;;;;;;;;15.33;69.69;99737.59;4179604;28;19909;-67
2024/04/05 04:16:57;;;;;;;;;;;;;;;15.22;69.98;99744.22;4179729;28;19908;-67
2024/04/05 04:18:57;;;;;;;;;;;;;;;15.12;70.23;99744.50;4179497;28;19944;-67
2024/04/05 04:20:57;;;;;;;;;;;;;;;15.09;70.57;99740.31;4179763;28;19951;-67
2024/04/05 04:22:58;;;;;;;;;;;;;;;15.03;70.55;99743.72;4179870;28;19948;-67
2024/04/05 04:24:59;;;;;;;;;;;;;;;15.00;70.77;99735.19;4179824;28;19916;-67
2024/04/05 04:27:01;;;;;;;;;;;;;;;15.00;70.92;99738.72;4178354;28;20396;-66
2024/04/05 04:29:03;;;;;;;;;;;;;;;14.93;71.18;99733.22;4179254;28;19909;-66
2024/04/05 04:31:15;;;;;;;;;;;;;;;15.05;70.74;99733.63;4179808;28;19959;-66
2024/04/05 04:33:15;;;;;;;;;;;;;;;14.96;70.94;99723.94;4179365;28;19936;-66
2024/04/05 04:35:16;;;;;;;;;;;;;;;14.97;70.83;99737.22;4179453;28;19909;-66
2024/04/05 04:37:18;;;;;;;;;;;;;;;14.90;71.30;99735.44;4179478;28;20323;-67
2024/04/05 04:39:18;;;;;;;;;;;;;;;14.89;71.27;99744.53;4178443;28;20481;-67
2024/04/05 04:41:21;;;;;;;;;;;;;;;15.04;71.09;99734.63;4177840;28;19959;-66
2024/04/05 04:43:21;;;;;;;;;;;;;;;15.13;70.56;99722.78;4178975;28;19936;-66
2024/04/05 04:45:22;;;;;;;;;;;;;;;15.06;70.52;99721.84;4179024;28;20411;-68
2024/04/05 04:47:24;;;;;;;;;;;;;;;15.04;70.53;99726.56;4178942;28;19944;-68
2024/04/05 04:49:25;;;;;;;;;;;;;;;14.92;71.10;99728.03;4178219;28;19913;-68
2024/04/05 04:51:26;;;;;;;;;;;;;;;14.78;71.50;99730.47;4178800;28;20276;-68
2024/04/05 04:53:26;;;;;;;;;;;;;;;14.73;71.73;99730.19;4177161;28;19917;-68
2024/04/05 04:55:27;;;;;;;;;;;;;;;14.80;71.55;99736.53;4177382;28;19935;-68
2024/04/05 04:57:27;;;;;;;;;;;;;;;14.72;71.81;99733.03;4177963;28;19915;-68
2024/04/05 04:59:30;;;;;;;;;;;;;;;14.66;71.86;99735.44;4178003;28;19921;-68
2024/04/05 05:01:30;;;;;;;;;;;;;;;14.72;72.01;99735.72;4178968;28;19944;-68
2024/04/05 05:03:31;;;;;;;;;;;;;;;14.78;71.78;99738.56;4177078;28;20007;-68
2024/04/05 05:05:31;;;;;;;;;;;;;;;14.64;71.93;99742.00;4178488;28;19952;-68
2024/04/05 05:07:31;;;;;;;;;;;;;;;14.71;71.99;99737.59;4178696;28;20357;-67
2024/04/05 05:09:32;;;;;;;;;;;;;;;14.68;71.89;99734.44;4178001;28;19999;-68
2024/04/05 05:11:33;;;;;;;;;;;;;;;14.65;72.04;99738.25;4178426;28;20365;-68
2024/04/05 05:13:33;;;;;;;;;;;;;;;14.59;72.00;99729.09;4178607;28;19917;-68
2024/04/05 05:15:34;;;;;;;;;;;;;;;14.65;71.89;99735.56;4179482;28;20380;-66
2024/04/05 05:17:34;;;;;;;;;;;;;;;14.55;72.07;99748.44;4178745;28;19919;-67
2024/04/05 05:19:34;;;;;;;;;;;;;;;14.62;72.05;99752.91;4177960;28;19923;-66
2024/04/05 05:21:35;;;;;;;;;;;;;;;14.52;72.26;99744.25;4178684;28;19909;-66
2024/04/05 05:23:35;;;;;;;;;;;;;;;14.63;72.07;99751.09;4178647;28;19958;-66
2024/04/05 05:25:37;;;;;;;;;;;;;;;14.57;71.94;99749.09;4178997;28;19916;-66
2024/04/05 05:27:37;;;;;;;;;;;;;;;14.58;71.98;99750.75;4179233;28;19952;-66
2024/04/05 05:29:37;;;;;;;;;;;;;;;14.62;71.83;99744.84;4178365;28;20000;-66
2024/04/05 05:31:38;;;;;;;;;;;;;;;14.64;71.51;99745.50;4178814;28;20052;-66
2024/04/05 05:33:38;;;;;;;;;;;;;;;14.66;71.67;99734.56;4178636;28;19920;-68
2024/04/05 05:35:39;;;;;;;;;;;;;;;14.71;71.62;99739.44;4178495;28;20383;-66
2024/04/05 05:37:39;;;;;;;;;;;;;;;14.86;70.78;99732.28;4178579;28;19913;-68
2024/04/05 05:39:39;;;;;;;;;;;;;;;15.01;70.70;99726.09;4177982;28;19948;-68
2024/04/05 05:41:40;;;;;;;;;;;;;;;15.01;70.53;99732.31;4177353;28;19909;-66
2024/04/05 05:43:40;;;;;;;;;;;;;;;15.02;70.16;99739.34;4178353;28;19913;-66
2024/04/05 05:45:40;;;;;;;;;;;;;;;15.03;70.16;99734.81;4178502;28;19912;-66
2024/04/05 05:47:41;;;;;;;;;;;;;;;15.03;70.11;99734.81;4178265;28;19916;-66
2024/04/05 05:49:41;;;;;;;;;;;;;;;15.08;70.16;99730.56;4177594;28;19955;-66
2024/04/05 05:51:41;;;;;;;;;;;;;;;15.10;69.70;99736.63;4178266;28;19909;-66
2024/04/05 05:53:42;;;;;;;;;;;;;;;15.23;69.68;99732.44;4177226;28;19913;-66
2024/04/05 05:55:42;;;;;;;;;;;;;;;15.31;69.63;99732.38;4178424;28;20016;-66
2024/04/05 05:57:44;;;;;;;;;;;;;;;15.25;69.60;99738.50;4177774;28;19908;-67
2024/04/05 05:59:44;;;;;;;;;;;;;;;15.21;69.47;99729.13;4177444;28;19919;-67
2024/04/05 06:01:44;;;;;;;;;;;;;;;15.13;69.56;99736.22;4178324;28;19909;-67
2024/04/05 06:03:45;;;;;;;;;;;;;;;15.22;69.54;99728.94;4178418;28;20408;-67
2024/04/05 06:05:51;;;;;;;;;;;;;;;15.23;69.48;99729.75;4178522;28;19931;-67
2024/04/05 06:07:51;;;;;;;;;;;;;;;15.28;69.56;99732.75;4182381;28;20332;-67
2024/04/05 06:09:52;;;;;;;;;;;;;;;15.36;69.22;99735.34;4179639;28;19909;-67
2024/04/05 06:11:54;;;;;;;;;;;;;;;15.35;68.91;99736.38;4180130;28;20431;-67
2024/04/05 06:13:54;;;;;;;;;;;;;;;15.33;69.08;99735.72;4179440;28;19952;-67
2024/04/05 06:15:55;;;;;;;;;;;;;;;15.25;69.01;99735.81;4181094;28;20262;-68
2024/04/05 06:17:55;;;;;;;;;;;;;;;15.16;69.23;99742.28;4178706;28;19909;-67
2024/04/05 06:19:56;;;;;;;;;;;;;;;15.18;69.01;99754.53;4177914;28;19909;-67
2024/04/05 06:21:56;;;;;;;;;;;;;;;15.02;69.45;99750.13;4184089;28;19970;-68
2024/04/05 06:23:59;;;;;;;;;;;;;;;14.98;69.73;99746.13;4189195;28;19909;-67
2024/04/05 06:26:00;;;;;;;;;;;;;;;15.08;69.37;99738.66;4189252;28;19912;-68
2024/04/05 06:28:00;;;;;;;;;;;;;;;15.19;69.01;99728.47;4190246;28;19909;-67
2024/04/05 06:30:01;;;;;;;;;;;;;;;15.18;69.30;99740.25;4188682;28;19908;-67
2024/04/05 06:32:01;;;;;;;;;;;;;;;15.19;69.38;99747.31;4188322;28;19943;-67
2024/04/05 06:34:02;;;;;;;;;;;;;;;15.16;69.41;99745.78;4183261;28;19912;-67
2024/04/05 06:36:03;;;;;;;;;;;;;;;15.19;69.31;99739.22;4181186;28;19909;-67
2024/04/05 06:38:03;;;;;;;;;;;;;;;15.36;68.91;99737.19;4181101;28;19912;-67
2024/04/05 06:40:03;;;;;;;;;;;;;;;15.46;68.78;99734.25;4180510;28;19915;-67
2024/04/05 06:42:04;;;;;;;;;;;;;;;15.51;68.43;99735.38;4181276;28;20003;-67
2024/04/05 06:44:04;;;;;;;;;;;;;;;15.78;67.84;99730.34;4179666;28;19913;-66
2024/04/05 06:46:05;;;;;;;;;;;;;;;15.77;67.46;99726.00;4180971;28;19916;-67
2024/04/05 06:48:05;;;;;;;;;;;;;;;15.74;67.76;99723.66;4180789;28;19954;-67
2024/04/05 06:50:06;;;;;;;;;;;;;;;16.03;66.43;99720.16;4180354;28;20466;-67
2024/04/05 06:52:07;;;;;;;;;;;;;;;16.15;66.19;99717.78;4183425;28;20320;-68
2024/04/05 06:54:07;;;;;;;;;;;;;;;16.22;65.78;99720.56;4185568;28;20428;-66
2024/04/05 06:56:08;;;;;;;;;;;;;;;16.50;64.76;99711.75;4185738;28;19970;-67
2024/04/05 06:58:09;;;;;;;;;;;;;;;16.60;64.28;99709.56;4180108;28;19915;-66
2024/04/05 07:00:10;;;;;;;;;;;;;;;16.65;63.89;99700.91;4180069;28;19974;-67
2024/04/05 07:02:11;;;;;;;;;;;;;;;16.62;63.88;99701.28;4180731;28;19919;-67
2024/04/05 07:04:11;;;;;;;;;;;;;;;16.88;62.64;99703.38;4181116;28;19909;-67
2024/04/05 07:06:11;;;;;;;;;;;;;;;17.06;62.20;99704.81;4181550;28;19999;-67
2024/04/05 07:08:12;;;;;;;;;;;;;;;17.11;61.31;99705.88;4189222;28;19917;-70
2024/04/05 07:10:12;;;;;;;;;;;;;;;17.22;61.21;99701.81;4187009;28;19919;-68
2024/04/05 07:12:12;;;;;;;;;;;;;;;17.29;60.75;99702.69;4188944;28;20277;-72
2024/04/05 07:14:14;;;;;;;;;;;;;;;17.42;60.40;99712.75;4189438;28;20011;-67
2024/04/05 07:16:15;;;;;;;;;;;;;;;17.21;60.97;99705.53;4187349;28;20005;-67
2024/04/05 07:18:18;;;;;;;;;;;;;;;17.55;60.04;99703.91;4189615;28;19936;-67
2024/04/05 07:20:19;;;;;;;;;;;;;;;17.79;59.03;99704.44;4187112;28;19955;-67
2024/04/05 07:22:19;;;;;;;;;;;;;;;17.77;59.45;99709.19;4186582;28;19912;-67
2024/04/05 07:24:21;;;;;;;;;;;;;;;17.61;59.94;99708.50;4180290;28;20335;-67
2024/04/05 07:26:21;;;;;;;;;;;;;;;17.81;59.31;99699.66;4181266;28;19948;-66
2024/04/05 07:28:22;;;;;;;;;;;;;;;17.69;59.27;99707.50;4180766;28;19908;-67
2024/04/05 07:30:22;;;;;;;;;;;;;;;17.87;58.61;99704.25;4179238;28;19947;-67
2024/04/05 07:32:22;;;;;;;;;;;;;;;17.89;58.84;99707.59;4180121;28;20436;-67
2024/04/05 07:34:23;;;;;;;;;;;;;;;17.98;58.17;99697.50;4179857;28;19920;-67
2024/04/05 07:36:23;;;;;;;;;;;;;;;17.99;58.07;99699.16;4178726;28;19947;-67
2024/04/05 07:38:25;;;;;;;;;;;;;;;18.17;57.33;99687.75;4178673;28;20393;-67
2024/04/05 07:40:26;;;;;;;;;;;;;;;18.16;57.05;99699.63;4179479;28;19915;-66
2024/04/05 07:42:27;;;;;;;;;;;;;;;18.39;56.60;99690.31;4179061;28;20452;-67
2024/04/05 07:44:27;;;;;;;;;;;;;;;18.48;56.33;99680.97;4179837;28;20002;-67
2024/04/05 07:46:27;;;;;;;;;;;;;;;18.63;56.31;99669.09;4178464;28;19917;-67
2024/04/05 07:48:28;;;;;;;;;;;;;;;18.68;55.93;99655.81;4179673;28;19909;-67
2024/04/05 07:50:28;;;;;;;;;;;;;;;18.77;55.79;99664.53;4179184;28;20337;-67
2024/04/05 07:52:29;;;;;;;;;;;;;;;18.66;55.83;99676.81;4179799;28;19952;-67
2024/04/05 07:54:30;;;;;;;;;;;;;;;18.97;54.78;99686.25;4179871;28;19920;-67
2024/04/05 07:56:30;;;;;;;;;;;;;;;19.06;54.74;99701.25;4179903;28;19915;-67
2024/04/05 07:58:30;;;;;;;;;;;;;;;19.18;54.33;99687.91;4179903;28;19916;-67
2024/04/05 08:00:30;;;;;;;;;;;;;;;19.12;54.61;99700.41;4178516;28;20350;-67
2024/04/05 08:02:32;;;;;;;;;;;;;;;19.40;53.43;99696.63;4179565;28;19920;-67
2024/04/05 08:04:33;;;;;;;;;;;;;;;19.42;53.42;99699.94;4179550;28;19924;-67
2024/04/05 08:06:33;;;;;;;;;;;;;;;19.70;53.16;99698.00;4179141;28;20503;-66
2024/04/05 08:08:33;;;;;;;;;;;;;;;20.07;51.97;99684.75;4179153;28;20412;-67
2024/04/05 08:10:34;;;;;;;;;;;;;;;20.36;51.45;99682.50;4178418;28;19924;-67
2024/04/05 08:12:34;;;;;;;;;;;;;;;20.85;50.67;99680.09;4179431;28;19919;-67
2024/04/05 08:14:35;;;;;;;;;;;;;;;21.12;50.05;99675.25;4179175;28;19928;-67
2024/04/05 08:16:38;;;;;;;;;;;;;;;21.46;49.38;99675.78;4179318;28;19916;-67
2024/04/05 08:18:38;;;;;;;;;;;;;;;21.57;47.93;99679.63;4179364;28;19909;-67
2024/04/05 08:20:39;;;;;;;;;;;;;;;21.65;47.58;99684.78;4179311;28;19916;-67
2024/04/05 08:22:39;;;;;;;;;;;;;;;21.72;48.14;99678.44;4180061;28;19940;-67
2024/04/05 08:24:39;;;;;;;;;;;;;;;21.87;47.77;99670.72;4179242;28;19909;-67
2024/04/05 08:26:40;;;;;;;;;;;;;;;21.85;47.73;99661.94;4179712;28;19964;-67
2024/04/05 08:28:40;;;;;;;;;;;;;;;22.13;46.17;99652.38;4181826;28;19943;-67
2024/04/05 08:30:41;;;;;;;;;;;;;;;21.83;47.17;99669.50;4178412;28;19913;-67
2024/04/05 08:32:42;;;;;;;;;;;;;;;21.73;46.80;99664.63;4178860;28;20346;-68
2024/04/05 08:34:42;;;;;;;;;;;;;;;21.75;47.02;99672.53;4179091;28;19951;-67
2024/04/05 08:36:45;;;;;;;;;;;;;;;21.90;46.70;99674.88;4177688;28;19908;-67
2024/04/05 08:38:46;;;;;;;;;;;;;;;22.42;45.89;99664.38;4179077;28;19909;-67
2024/04/05 08:40:47;;;;;;;;;;;;;;;22.79;44.89;99660.63;4178117;28;19915;-67
2024/04/05 08:42:50;;;;;;;;;;;;;;;23.13;44.57;99650.00;4178385;28;19908;-67
2024/04/05 08:44:51;;;;;;;;;;;;;;;23.46;44.23;99645.84;4178454;28;19955;-67
2024/04/05 08:46:52;;;;;;;;;;;;;;;23.33;43.31;99646.94;4177858;28;19913;-67
2024/04/05 08:48:53;;;;;;;;;;;;;;;23.57;42.82;99632.41;4177696;28;20479;-67
2024/04/05 08:50:54;;;;;;;;;;;;;;;23.74;42.61;99638.78;4178307;28;19912;-68
2024/04/05 08:52:54;;;;;;;;;;;;;;;23.58;42.94;99634.06;4178309;28;19919;-67
2024/04/05 08:54:56;;;;;;;;;;;;;;;23.71;42.51;99639.25;4178428;28;19916;-67
2024/04/05 08:56:58;;;;;;;;;;;;;;;23.46;42.33;99632.19;4178378;28;19999;-68
2024/04/05 08:58:59;;;;;;;;;;;;;;;23.33;42.33;99643.38;4177693;28;19909;-67
2024/04/05 09:01:00;;;;;;;;;;;;;;;23.27;42.54;99639.72;4178358;28;20046;-67
2024/04/05 09:03:01;;;;;;;;;;;;;;;23.13;43.09;99650.00;4178194;28;19908;-67
2024/04/05 09:05:07;;;;;;;;;;;;;;;23.57;42.31;99654.25;4178332;28;19949;-67
2024/04/05 09:07:07;;;;;;;;;;;;;;;24.01;41.35;99651.88;4178187;28;20274;-67
2024/04/05 09:09:07;;;;;;;;;;;;;;;24.29;41.18;99655.66;4176218;28;19923;-67
2024/04/05 09:11:08;;;;;;;;;;;;;;;24.73;40.26;99649.63;4178347;28;19908;-67
2024/04/05 09:13:08;;;;;;;;;;;;;;;24.25;39.55;99649.06;4177118;28;19913;-67
2024/04/05 09:15:16;;;;;;;;;;;;;;;24.33;39.39;99632.28;4178140;28;19919;-67
2024/04/05 09:17:16;;;;;;;;;;;;;;;24.34;38.58;99631.19;4178103;28;20391;-67
2024/04/05 09:19:17;;;;;;;;;;;;;;;23.61;39.38;99633.59;4177698;28;19967;-67
2024/04/05 09:21:21;;;;;;;;;;;;;;;23.23;40.05;99626.78;4178175;28;20304;-67
2024/04/05 09:23:21;;;;;;;;;;;;;;;23.79;39.12;99638.91;4178241;28;20012;-67
2024/04/05 09:25:22;;;;;;;;;;;;;;;23.72;39.69;99640.09;4177692;28;19945;-67
2024/04/05 09:27:22;;;;;;;;;;;;;;;24.05;39.11;99630.38;4177549;28;20352;-67
2024/04/05 09:29:23;;;;;;;;;;;;;;;24.56;38.28;99623.09;4176114;28;20288;-67
2024/04/05 09:31:24;;;;;;;;;;;;;;;24.84;37.12;99621.38;4178081;28;19913;-67
2024/04/05 09:33:25;;;;;;;;;;;;;;;24.82;37.28;99622.72;4177909;28;19920;-68
2024/04/05 09:35:25;;;;;;;;;;;;;;;24.97;37.69;99612.00;4178144;28;19919;-67
2024/04/05 09:37:26;;;;;;;;;;;;;;;24.77;37.88;99613.34;4178454;28;20005;-67
2024/04/05 09:39:27;;;;;;;;;;;;;;;24.99;37.58;99604.41;4177493;28;19936;-67
2024/04/05 09:41:28;;;;;;;;;;;;;;;24.90;37.58;99601.25;4178120;28;20385;-67
2024/04/05 09:43:29;;;;;;;;;;;;;;;24.73;37.64;99590.34;4178028;28;19909;-67
2024/04/05 09:45:34;;;;;;;;;;;;;;;24.69;37.15;99588.38;4178075;28;19908;-68
2024/04/05 09:47:34;;;;;;;;;;;;;;;24.65;37.61;99588.00;4177997;28;19909;-67
2024/04/05 09:49:34;;;;;;;;;;;;;;;24.76;37.48;99599.94;4177390;28;19920;-67
2024/04/05 09:51:45;;;;;;;;;;;;;;;24.59;37.44;99599.91;4176568;28;19916;-68
2024/04/05 09:53:46;;;;;;;;;;;;;;;24.17;38.19;99603.84;4177821;28;19917;-67
2024/04/05 09:55:51;;;;;;;;;;;;;;;24.11;37.56;99608.41;4178243;28;19995;-67
2024/04/05 09:57:53;;;;;;;;;;;;;;;23.64;38.40;99603.94;4179659;28;20431;-67
2024/04/05 09:59:54;;;;;;;;;;;;;;;24.06;37.72;99612.94;4180559;28;19955;-67
2024/04/05 10:01:55;;;;;;;;;;;;;;;23.86;37.82;99608.72;4181068;28;19998;-67
2024/04/05 10:03:56;;;;;;;;;;;;;;;24.17;37.52;99600.31;4179730;28;19909;-66
2024/04/05 10:05:56;;;;;;;;;;;;;;;23.97;38.06;99609.78;4181025;28;19916;-67
2024/04/05 10:08:07;;;;;;;;;;;;;;;24.54;37.06;99602.59;4180884;28;19952;-67
2024/04/05 10:10:08;;;;;;;;;;;;;;;24.42;37.05;99588.97;4179961;28;19996;-68
2024/04/05 10:12:12;;;;;;;;;;;;;;;24.67;36.35;99594.03;4180871;28;19912;-67
2024/04/05 10:14:26;;;;;;;;;;;;;;;25.00;35.86;99584.19;4180340;28;19948;-67
2024/04/05 10:16:26;;;;;;;;;;;;;;;25.20;35.29;99577.34;4179523;28;19970;-67
2024/04/05 10:18:32;;;;;;;;;;;;;;;25.02;35.38;99576.56;4180747;28;20007;-67
2024/04/05 10:20:34;;;;;;;;;;;;;;;25.24;34.90;99556.59;4180524;28;20007;-66
2024/04/05 10:22:34;;;;;;;;;;;;;;;25.17;34.88;99559.53;4180908;28;19920;-67
2024/04/05 10:24:35;;;;;;;;;;;;;;;25.63;34.36;99553.00;4181082;28;19936;-66
2024/04/05 10:26:36;;;;;;;;;;;;;;;25.44;34.38;99542.38;4180815;28;19909;-66
2024/04/05 10:28:37;;;;;;;;;;;;;;;25.80;33.88;99544.66;4179563;28;19996;-67
2024/04/05 10:30:38;;;;;;;;;;;;;;;25.73;33.81;99538.59;4179375;28;19913;-67